Yaxley, United Kingdom
Current Conditions -  °F | °C
As of 10:50 AM on Tuesday 21 Oct 2014 (Local Time) from EGXT Reporting Station
Few Clouds Few Clouds  
Wind Chill: 54°   Ceiling: Unl
Heat Index: 54°   Visibility: 6mi
Dew Point: 41°   Wind: 28mph
Humidity: 62%   Direction: 280°W
Pressure: 29.53"   Gusts: NA
Location:  52.52°N, 0.26°W
Report Text: EGXT 210950Z AUTO 28024KT 9999 // FEW037/// 12/05 Q1000
Loading
Personal Weather Stations






























Interactive Weather Map
Tropical Storm Tracking
New forecast layout! Learn more

10-Day Weather Forecast

Advertisements
Track Severe Weather on mobile